MET'MAP v2.0
soon released !

Expected late october,
this new version will be
more efficient, smarter,
and hosted on a brand new
server x3 powerfull...
...and still free !


Not compatible ?
Try the mobile version !

LOG IN : | Subscribe | Disclaimer | Who is Orbifly ? |
ICAO code :

TAF - LRTC Tulcea Airport - 20 Feb 2020 11:18 UTC - Data Source NOAA   


- Airport Elevation : 200 ft
- IATA code : TCE
- No reported NOTAMs.


LRTC - Tulcea Airport

Latest METAR recorded : 2015/08/11 08:00 LRTC 110800Z 07013KT CAVOK 31/11 Q1011
TAF TAF LRTC
Valid from the 20 at 09:00 until the 20 at 18:00 UTC


200800Z 2009/2018 06010KT CAVOK

Source NOAA


MET'MAP, your aeronautical weather chart ! - Copyright ORBIFLY December 2007

Programming & Development : Alexandra Zaïnal
Co-Developer : Marc-Olivier Méhu
Technical & hardware support : Manuel Goepfert
Concept & Financing : Baudouin d'Aumeries